Time;durP1;ratioP1;P1;durP2;ratioP2;P2;SDS_P1;SDS_P2;PMS_P1;PMS_P2;Temp;Humidity;BMP_temperature;BMP_pressure;BME280_temperature;BME280_humidity;BME280_pressure;Samples;Min_cycle;Max_cycle;Signal;HPM_P1;HPM_P2
2023/05/31 00:00:24;;;;;;;8.23;2.15;;;13.00;1.00;;;;;;6164043;23;20032;-89
2023/05/31 00:03:13;;;;;;;5.32;2.75;;;13.00;1.00;;;;;;6166228;23;20631;-89
2023/05/31 00:06:01;;;;;;;8.32;2.08;;;13.00;1.00;;;;;;6165793;23;20337;-87
2023/05/31 00:08:48;;;;;;;5.38;2.10;;;13.00;1.00;;;;;;6186706;23;20081;-88
2023/05/31 00:11:35;;;;;;;4.93;2.20;;;13.00;1.00;;;;;;6166004;23;20025;-90
2023/05/31 00:14:23;;;;;;;5.30;2.50;;;12.90;1.00;;;;;;6165711;23;20329;-92
2023/05/31 00:17:11;;;;;;;13.45;2.45;;;13.00;1.00;;;;;;6187580;23;20025;-88
2023/05/31 00:20:18;;;;;;;7.70;2.65;;;12.90;1.00;;;;;;6185170;23;20025;-91
2023/05/31 00:23:08;;;;;;;6.45;2.45;;;12.80;1.00;;;;;;6187378;23;20456;-88
2023/05/31 00:25:55;;;;;;;5.93;2.55;;;12.80;1.00;;;;;;6165873;23;20025;-88
2023/05/31 00:28:43;;;;;;;3.70;2.42;;;12.80;1.00;;;;;;6186778;23;20051;-89
2023/05/31 00:31:30;;;;;;;5.57;2.60;;;12.80;1.00;;;;;;6185226;23;20377;-88
2023/05/31 00:34:18;;;;;;;5.63;2.38;;;12.90;1.00;;;;;;6164584;23;20020;-89
2023/05/31 00:37:07;;;;;;;4.97;2.13;;;12.80;1.00;;;;;;6165910;23;20029;-89
2023/05/31 00:39:54;;;;;;;6.97;2.38;;;12.70;1.00;;;;;;6187181;23;20028;-88
2023/05/31 00:42:42;;;;;;;5.55;2.75;;;12.70;1.00;;;;;;6186177;23;20025;-87
2023/05/31 00:45:29;;;;;;;7.07;2.42;;;12.60;1.00;;;;;;6187363;23;20302;-87
2023/05/31 00:48:17;;;;;;;5.90;2.35;;;12.70;1.00;;;;;;6186546;23;20029;-88
2023/05/31 00:51:07;;;;;;;4.88;2.58;;;12.60;1.00;;;;;;6187907;23;20036;-87
2023/05/31 00:53:55;;;;;;;6.47;2.70;;;12.50;1.00;;;;;;6186222;23;20052;-90
2023/05/31 00:56:46;;;;;;;6.32;2.20;;;12.40;1.00;;;;;;6186221;23;20028;-88
2023/05/31 00:59:34;;;;;;;6.47;2.45;;;12.40;1.00;;;;;;6171003;23;20025;-92
2023/05/31 01:02:22;;;;;;;5.10;2.13;;;12.50;1.00;;;;;;6189152;23;20112;-88
2023/05/31 01:05:10;;;;;;;5.35;2.25;;;12.40;1.00;;;;;;6190497;23;20035;-90
2023/05/31 01:07:58;;;;;;;5.80;2.33;;;12.40;1.00;;;;;;6167244;23;20025;-90
2023/05/31 01:10:46;;;;;;;6.38;2.30;;;12.40;1.00;;;;;;6167334;23;20029;-89
2023/05/31 01:13:42;;;;;;;5.55;2.30;;;12.50;1.00;;;;;;6178166;23;20021;-91
2023/05/31 01:16:41;;;;;;;6.72;2.42;;;12.50;1.00;;;;;;6188243;23;20397;-92
2023/05/31 01:19:52;;;;;;;6.38;2.90;;;12.50;1.00;;;;;;6167554;23;20060;-91
2023/05/31 01:23:30;;;;;;;6.05;2.40;;;12.40;1.00;;;;;;6196205;23;20048;-90
2023/05/31 01:27:01;;;;;;;9.10;2.70;;;12.50;1.00;;;;;;6041341;23;20027;-92
2023/05/31 01:29:50;;;;;;;5.40;2.25;;;12.50;1.00;;;;;;6187409;23;20021;-88
2023/05/31 01:32:38;;;;;;;8.77;2.63;;;12.40;1.00;;;;;;6184915;23;20053;-89
2023/05/31 01:35:27;;;;;;;11.20;2.80;;;12.30;1.00;;;;;;6164879;23;20029;-89
2023/05/31 01:38:14;;;;;;;7.72;2.63;;;12.20;1.00;;;;;;6182369;23;20032;-89
2023/05/31 01:41:03;;;;;;;9.38;3.20;;;12.20;1.00;;;;;;6184743;23;20034;-91
2023/05/31 01:43:52;;;;;;;4.57;2.58;;;12.10;1.00;;;;;;6188139;23;20763;-91
2023/05/31 01:46:41;;;;;;;6.00;2.53;;;12.00;1.00;;;;;;6188970;23;20272;-90
2023/05/31 01:49:29;;;;;;;8.32;2.45;;;11.90;1.00;;;;;;6165374;23;20029;-90
2023/05/31 01:52:20;;;;;;;9.13;2.40;;;11.70;1.00;;;;;;6184344;23;20039;-90
2023/05/31 01:55:08;;;;;;;6.40;2.70;;;11.70;1.00;;;;;;6165067;23;20313;-89
2023/05/31 01:57:58;;;;;;;4.80;2.05;;;11.80;1.00;;;;;;6185234;23;20035;-91
2023/05/31 02:00:49;;;;;;;6.40;2.70;;;11.90;1.00;;;;;;6186275;23;20032;-91
2023/05/31 02:03:40;;;;;;;6.13;2.42;;;11.90;1.00;;;;;;6183233;23;20048;-89
2023/05/31 02:06:27;;;;;;;6.30;2.42;;;11.80;1.00;;;;;;6184987;23;20056;-89
2023/05/31 02:09:20;;;;;;;7.90;2.72;;;11.80;1.00;;;;;;6183749;23;20035;-89
2023/05/31 02:12:11;;;;;;;5.32;2.47;;;11.70;1.00;;;;;;6187284;23;20385;-88
2023/05/31 02:14:59;;;;;;;3.55;2.17;;;11.70;1.00;;;;;;6184891;23;20021;-93
2023/05/31 02:17:50;;;;;;;6.32;2.53;;;11.80;1.00;;;;;;6184361;23;20108;-91
2023/05/31 02:20:38;;;;;;;8.65;2.30;;;11.80;1.00;;;;;;6184365;23;20392;-88
2023/05/31 02:23:26;;;;;;;7.22;2.65;;;11.80;1.00;;;;;;6165098;23;20302;-91
2023/05/31 02:26:13;;;;;;;7.40;2.58;;;11.80;1.00;;;;;;6163732;23;20329;-90
2023/05/31 02:29:00;;;;;;;7.57;2.47;;;11.80;1.00;;;;;;6182714;23;20040;-90
2023/05/31 02:31:48;;;;;;;7.13;2.80;;;11.80;1.00;;;;;;6183071;23;20021;-94
2023/05/31 02:34:37;;;;;;;7.15;2.60;;;11.80;1.00;;;;;;6184607;23;20056;-90
2023/05/31 02:37:24;;;;;;;6.10;2.47;;;11.80;1.00;;;;;;6163185;23;20025;-89
2023/05/31 02:40:13;;;;;;;5.30;2.20;;;11.70;1.00;;;;;;6184192;23;20420;-90
2023/05/31 02:43:00;;;;;;;3.90;2.30;;;11.60;1.00;;;;;;6184857;23;20096;-91
2023/05/31 02:45:47;;;;;;;5.05;2.30;;;11.50;1.00;;;;;;6183594;23;20029;-90
2023/05/31 02:48:35;;;;;;;8.55;2.60;;;11.40;1.00;;;;;;6185434;23;20059;-90
2023/05/31 02:51:22;;;;;;;6.50;2.60;;;11.40;1.00;;;;;;6182947;23;20025;-90
2023/05/31 02:54:11;;;;;;;6.40;2.47;;;11.30;1.00;;;;;;6162473;23;20025;-89
2023/05/31 02:56:59;;;;;;;4.65;2.65;;;11.30;1.00;;;;;;6185079;23;20025;-90
2023/05/31 02:59:46;;;;;;;7.15;2.63;;;11.20;1.00;;;;;;6186024;23;20017;-91
2023/05/31 03:02:34;;;;;;;6.53;2.78;;;11.30;1.00;;;;;;6184656;23;20036;-88
2023/05/31 03:05:23;;;;;;;5.97;2.35;;;11.30;1.00;;;;;;6185259;23;20076;-90
2023/05/31 03:08:14;;;;;;;6.75;2.55;;;11.30;1.00;;;;;;6184444;23;20089;-90
2023/05/31 03:11:03;;;;;;;7.68;3.03;;;11.40;1.00;;;;;;6163539;23;20045;-90
2023/05/31 03:13:52;;;;;;;10.07;2.50;;;11.40;1.00;;;;;;6182964;23;20160;-89
2023/05/31 03:16:42;;;;;;;5.57;2.45;;;11.40;1.00;;;;;;6184843;23;20025;-91
2023/05/31 03:19:33;;;;;;;8.63;2.80;;;11.50;1.00;;;;;;6184333;23;20025;-89
2023/05/31 03:22:22;;;;;;;4.30;2.35;;;11.50;1.00;;;;;;6184617;23;20021;-90
2023/05/31 03:25:13;;;;;;;9.10;2.60;;;11.40;1.00;;;;;;6183672;23;20024;-93
2023/05/31 03:28:02;;;;;;;7.00;2.40;;;11.40;1.00;;;;;;6164602;23;20029;-90
2023/05/31 03:30:52;;;;;;;4.32;2.25;;;11.40;1.00;;;;;;6184287;23;20021;-92
2023/05/31 03:33:39;;;;;;;6.43;2.42;;;11.40;1.00;;;;;;6164905;23;20103;-90
2023/05/31 03:36:29;;;;;;;6.75;2.38;;;11.30;1.00;;;;;;6161521;23;20029;-89
2023/05/31 03:39:16;;;;;;;8.05;2.83;;;11.30;1.00;;;;;;6184720;23;20092;-90
2023/05/31 03:42:05;;;;;;;5.20;2.50;;;11.30;1.00;;;;;;6163516;23;20025;-89
2023/05/31 03:44:52;;;;;;;9.88;2.75;;;11.30;1.00;;;;;;6184148;23;20029;-90
2023/05/31 03:47:40;;;;;;;5.18;2.53;;;11.30;1.00;;;;;;6189170;23;20032;-90
2023/05/31 03:50:27;;;;;;;11.77;2.53;;;11.20;1.00;;;;;;6182802;23;20096;-89
2023/05/31 03:53:16;;;;;;;4.63;2.40;;;11.20;1.00;;;;;;6183999;23;20103;-88
2023/05/31 03:56:04;;;;;;;5.40;2.75;;;11.20;1.00;;;;;;6186106;23;20031;-89
2023/05/31 03:58:54;;;;;;;5.43;2.50;;;11.10;1.00;;;;;;6165230;23;20080;-92
2023/05/31 04:05:49;;;;;;;9.50;2.50;;;11.00;1.00;;;;;;6185064;23;20409;-89
2023/05/31 04:08:36;;;;;;;6.15;3.08;;;11.00;1.00;;;;;;6163832;23;20589;-92
2023/05/31 04:11:25;;;;;;;6.88;2.55;;;11.00;1.00;;;;;;6184338;23;20479;-89
2023/05/31 04:14:13;;;;;;;5.20;2.45;;;11.00;1.00;;;;;;6185664;23;20636;-90
2023/05/31 04:17:00;;;;;;;4.28;2.65;;;11.00;1.00;;;;;;6184967;23;20021;-91
2023/05/31 04:19:47;;;;;;;5.38;2.60;;;11.00;1.00;;;;;;6184492;23;20413;-88
2023/05/31 04:22:35;;;;;;;6.07;2.65;;;11.00;1.00;;;;;;6164466;23;20104;-90
2023/05/31 04:25:23;;;;;;;5.03;2.60;;;11.00;1.00;;;;;;6183423;23;20012;-90
2023/05/31 04:28:18;;;;;;;7.90;2.60;;;11.00;1.00;;;;;;6192103;23;20100;-94
2023/05/31 04:31:16;;;;;;;5.28;2.55;;;11.10;1.00;;;;;;6185781;23;20060;-93
2023/05/31 04:38:27;;;;;;;6.65;2.60;;;11.20;1.00;;;;;;6112027;23;20133;-93
2023/05/31 04:41:17;;;;;;;5.95;2.50;;;11.30;1.00;;;;;;6118132;23;20267;-92
2023/05/31 04:49:00;;;;;;;7.15;2.80;;;11.60;1.00;;;;;;6195610;23;20055;-93
2023/05/31 04:52:02;;;;;;;7.25;2.35;;;11.80;1.00;;;;;;6173709;23;20029;-92
2023/05/31 04:54:51;;;;;;;7.30;2.55;;;12.00;1.00;;;;;;6186217;23;20048;-93
2023/05/31 04:57:39;;;;;;;4.35;2.20;;;12.00;1.00;;;;;;6166084;23;20021;-92
2023/05/31 05:00:27;;;;;;;8.68;2.60;;;12.10;1.00;;;;;;6188071;23;20451;-90
2023/05/31 05:03:15;;;;;;;4.85;2.63;;;12.20;1.00;;;;;;6190883;23;20021;-92
2023/05/31 05:06:19;;;;;;;4.35;2.25;;;12.20;1.00;;;;;;6167851;23;20036;-93
2023/05/31 05:09:11;;;;;;;6.53;2.55;;;12.30;1.00;;;;;;6184665;23;20035;-88
2023/05/31 05:11:58;;;;;;;7.88;2.80;;;12.30;1.00;;;;;;6187090;23;20028;-91
2023/05/31 05:14:56;;;;;;;6.25;2.72;;;12.30;1.00;;;;;;6172450;23;20032;-89
2023/05/31 05:17:45;;;;;;;7.45;3.08;;;12.40;1.00;;;;;;6171041;23;20021;-89
2023/05/31 05:20:33;;;;;;;8.82;2.70;;;12.40;1.00;;;;;;6169900;23;20091;-90
2023/05/31 05:23:21;;;;;;;4.88;2.33;;;12.50;1.00;;;;;;6166030;23;20079;-91
2023/05/31 05:26:08;;;;;;;6.97;2.70;;;12.60;1.00;;;;;;6165620;23;20035;-90
2023/05/31 05:28:56;;;;;;;6.70;2.38;;;12.80;1.00;;;;;;6165560;23;20492;-90
2023/05/31 05:31:43;;;;;;;4.07;2.00;;;12.90;1.00;;;;;;6181431;23;20379;-89
2023/05/31 05:34:30;;;;;;;7.05;2.38;;;13.00;1.00;;;;;;6163844;23;20082;-89
2023/05/31 05:37:18;;;;;;;3.97;2.45;;;13.10;1.00;;;;;;6164441;23;20021;-86
2023/05/31 05:40:07;;;;;;;6.80;2.72;;;13.20;1.00;;;;;;6184319;23;20049;-94
2023/05/31 05:42:56;;;;;;;11.45;2.60;;;13.30;1.00;;;;;;6164071;23;20020;-89
2023/05/31 05:45:45;;;;;;;6.38;2.35;;;13.40;1.00;;;;;;6161791;23;20029;-87
2023/05/31 05:48:33;;;;;;;6.10;2.40;;;13.50;1.00;;;;;;6164191;23;20028;-86
2023/05/31 05:51:20;;;;;;;6.88;2.63;;;13.60;1.00;;;;;;6163672;23;20025;-90
2023/05/31 05:54:10;;;;;;;7.53;2.92;;;13.70;1.00;;;;;;6184424;23;20121;-90
2023/05/31 05:57:15;;;;;;;6.80;2.30;;;13.80;1.00;;;;;;6164995;23;20029;-92
2023/05/31 06:00:14;;;;;;;6.25;2.50;;;13.80;1.00;;;;;;6169315;23;20025;-89
2023/05/31 06:03:01;;;;;;;11.18;2.28;;;14.00;1.00;;;;;;6182086;23;20025;-89
2023/05/31 06:05:49;;;;;;;8.43;3.13;;;14.10;1.00;;;;;;6163679;23;20033;-91
2023/05/31 06:08:58;;;;;;;7.93;2.67;;;14.20;1.00;;;;;;6166970;23;20032;-90
2023/05/31 06:11:50;;;;;;;5.03;2.30;;;14.30;1.00;;;;;;6165953;23;20032;-91
2023/05/31 06:14:43;;;;;;;4.60;2.33;;;14.40;1.00;;;;;;6186264;23;20025;-90
2023/05/31 06:17:44;;;;;;;8.30;2.85;;;14.60;1.00;;;;;;6184201;23;20112;-92
2023/05/31 06:20:34;;;;;;;8.20;2.63;;;14.70;1.00;;;;;;6165699;23;20031;-90
2023/05/31 06:23:22;;;;;;;8.82;2.95;;;14.80;1.00;;;;;;6188935;23;20096;-87
2023/05/31 06:26:10;;;;;;;7.22;2.58;;;14.90;1.00;;;;;;6161233;23;20029;-86
2023/05/31 06:29:05;;;;;;;7.25;2.55;;;15.00;1.00;;;;;;6187068;23;20095;-89
2023/05/31 06:31:56;;;;;;;8.73;2.50;;;15.20;1.00;;;;;;6192125;23;20044;-91
2023/05/31 06:34:43;;;;;;;5.93;2.33;;;15.30;1.00;;;;;;6166653;23;20073;-87
2023/05/31 06:37:31;;;;;;;5.30;2.30;;;15.30;1.00;;;;;;6161414;23;20032;-88
2023/05/31 06:40:18;;;;;;;9.68;2.83;;;15.50;1.00;;;;;;6161937;23;20111;-87
2023/05/31 06:43:06;;;;;;;6.47;2.33;;;15.70;1.00;;;;;;6162562;23;20035;-91
2023/05/31 06:45:54;;;;;;;8.13;2.67;;;16.00;1.00;;;;;;6163884;23;20112;-90
2023/05/31 06:48:52;;;;;;;7.85;2.60;;;16.10;1.00;;;;;;6183109;23;20087;-94
2023/05/31 06:52:17;;;;;;;8.40;2.63;;;16.30;1.00;;;;;;6167333;23;20076;-86
2023/05/31 06:55:08;;;;;;;6.55;2.22;;;16.50;1.00;;;;;;6184615;23;20025;-87
2023/05/31 06:57:55;;;;;;;6.50;2.60;;;16.70;1.00;;;;;;6186178;23;20025;-89
2023/05/31 07:00:43;;;;;;;5.07;2.50;;;16.80;1.00;;;;;;6162866;23;20029;-88
2023/05/31 07:03:36;;;;;;;6.43;2.63;;;17.10;1.00;;;;;;6165325;23;20405;-94
2023/05/31 07:06:28;;;;;;;5.55;2.63;;;17.20;1.00;;;;;;6164504;23;20514;-90
2023/05/31 07:09:21;;;;;;;5.25;2.40;;;17.40;1.00;;;;;;6165400;23;20321;-93
2023/05/31 07:12:11;;;;;;;9.35;2.33;;;17.70;1.00;;;;;;6184413;23;20036;-92
2023/05/31 07:14:58;;;;;;;11.38;2.60;;;18.10;1.00;;;;;;6182032;23;20032;-91
2023/05/31 07:17:48;;;;;;;5.70;3.00;;;18.50;1.00;;;;;;6183314;23;20435;-90
2023/05/31 07:20:35;;;;;;;8.27;2.70;;;18.90;1.00;;;;;;6183991;23;20020;-89
2023/05/31 07:23:24;;;;;;;4.70;2.63;;;19.10;1.00;;;;;;6184609;23;20622;-89
2023/05/31 07:26:11;;;;;;;6.15;2.03;;;19.50;1.00;;;;;;6187177;23;20033;-90
2023/05/31 07:28:59;;;;;;;4.85;2.70;;;19.60;1.00;;;;;;6164001;23;20047;-93
2023/05/31 07:31:53;;;;;;;10.73;2.80;;;19.50;1.00;;;;;;6185619;23;20036;-89
2023/05/31 07:34:41;;;;;;;5.57;2.47;;;19.90;1.00;;;;;;6186722;23;20029;-90
2023/05/31 07:38:09;;;;;;;6.28;2.25;;;20.00;1.00;;;;;;6172769;23;20159;-92
2023/05/31 07:41:15;;;;;;;7.72;2.58;;;20.10;1.00;;;;;;6176140;23;20025;-92
2023/05/31 07:44:06;;;;;;;9.90;2.28;;;20.30;1.00;;;;;;6167910;23;20308;-92
2023/05/31 07:46:55;;;;;;;6.38;2.67;;;20.80;1.00;;;;;;6074065;23;20023;-88
2023/05/31 07:49:45;;;;;;;7.38;2.70;;;21.20;1.00;;;;;;6052206;23;20026;-92
2023/05/31 07:53:01;;;;;;;8.65;2.22;;;21.70;1.00;;;;;;6052482;23;20110;-92
2023/05/31 07:55:52;;;;;;;5.38;2.28;;;21.50;1.00;;;;;;6074209;23;20191;-90
2023/05/31 07:58:45;;;;;;;5.82;2.38;;;21.90;1.00;;;;;;6073630;23;20042;-92
2023/05/31 08:01:40;;;;;;;8.55;2.70;;;22.10;1.00;;;;;;6075706;23;20031;-90
2023/05/31 08:04:31;;;;;;;6.95;2.67;;;22.10;1.00;;;;;;6103290;23;20029;-90
2023/05/31 08:07:41;;;;;;;7.20;2.80;;;21.90;1.00;;;;;;6173265;23;20025;-91
2023/05/31 08:10:37;;;;;;;6.95;2.83;;;21.90;1.00;;;;;;6195256;23;20043;-87
2023/05/31 08:13:30;;;;;;;7.35;3.20;;;22.40;1.00;;;;;;6198762;23;20009;-91
2023/05/31 08:16:30;;;;;;;7.45;2.40;;;22.90;1.00;;;;;;6197352;23;20069;-91
2023/05/31 08:19:22;;;;;;;7.75;2.60;;;23.20;1.00;;;;;;6170654;23;20025;-90
2023/05/31 08:22:45;;;;;;;9.63;2.35;;;23.60;1.00;;;;;;6166741;23;20111;-93
2023/05/31 08:25:33;;;;;;;8.65;2.30;;;23.70;1.00;;;;;;6168102;23;20025;-90
2023/05/31 08:28:32;;;;;;;4.43;2.40;;;23.50;1.00;;;;;;6166562;23;20085;-90
2023/05/31 08:31:23;;;;;;;7.35;2.55;;;23.20;1.00;;;;;;6166426;23;20036;-92
2023/05/31 08:34:20;;;;;;;13.90;2.95;;;23.10;1.00;;;;;;6169665;23;20108;-91
2023/05/31 08:37:21;;;;;;;5.05;2.65;;;23.10;1.00;;;;;;6173069;23;20408;-92
2023/05/31 08:40:25;;;;;;;6.45;2.50;;;23.30;1.00;;;;;;6172920;23;20035;-89
2023/05/31 08:43:44;;;;;;;8.13;2.70;;;23.30;1.00;;;;;;6169330;23;20029;-92
2023/05/31 08:47:23;;;;;;;6.40;2.20;;;23.80;1.00;;;;;;6148683;23;20096;-92
2023/05/31 08:51:05;;;;;;;7.55;2.60;;;24.10;1.00;;;;;;6041832;23;20300;-88
2023/05/31 08:53:59;;;;;;;8.70;2.55;;;24.60;1.00;;;;;;5930959;24;20037;-91
2023/05/31 09:01:13;;;;;;;8.68;2.30;;;24.70;1.00;;;;;;6046020;23;20016;-91
2023/05/31 09:04:32;;;;;;;;;;;;;;;;;;;;;
2023/05/31 09:07:39;;;;;;;4.88;2.60;;;24.60;1.00;;;;;;6139227;23;20095;-88
2023/05/31 09:10:32;;;;;;;7.70;2.45;;;25.00;1.00;;;;;;6188873;23;20124;-92
2023/05/31 09:13:36;;;;;;;11.95;2.60;;;25.50;1.00;;;;;;6191014;23;20788;-85
2023/05/31 09:16:35;;;;;;;6.30;2.53;;;25.20;1.00;;;;;;6190952;23;20083;-92
2023/05/31 09:19:39;;;;;;;12.10;2.80;;;24.70;1.00;;;;;;6167310;23;20100;-89
2023/05/31 09:23:01;;;;;;;6.65;2.33;;;25.00;1.00;;;;;;6187145;23;20032;-92
2023/05/31 09:26:03;;;;;;;8.20;2.60;;;25.20;1.00;;;;;;6178733;23;20024;-89
2023/05/31 09:28:59;;;;;;;7.05;2.63;;;25.20;1.00;;;;;;6191748;23;20032;-91
2023/05/31 09:32:09;;;;;;;6.05;2.28;;;25.60;1.00;;;;;;6185759;23;20065;-90
2023/05/31 09:35:27;;;;;;;6.60;2.50;;;26.00;1.00;;;;;;6164849;23;20025;-92
2023/05/31 09:38:30;;;;;;;12.25;2.50;;;26.00;1.00;;;;;;6168275;23;20025;-91
2023/05/31 09:41:28;;;;;;;6.50;2.50;;;25.80;1.00;;;;;;6170280;23;20025;-94
2023/05/31 09:45:16;;;;;;;5.13;2.78;;;26.40;1.00;;;;;;6169741;23;20029;-89
2023/05/31 09:53:20;;;;;;;;;;;26.90;1.00;;;;;;5984188;23;20028;-92
2023/05/31 09:56:43;;;;;;;4.65;2.15;;;27.20;1.00;;;;;;6015249;23;19926;-89
2023/05/31 09:59:39;;;;;;;10.50;2.33;;;27.60;1.00;;;;;;5994874;23;20031;-91
2023/05/31 10:03:01;;;;;;;6.35;2.00;;;27.30;1.00;;;;;;6017119;23;20038;-91
2023/05/31 10:06:36;;;;;;;5.88;2.20;;;26.80;1.00;;;;;;6012566;23;20024;-90
2023/05/31 10:09:37;;;;;;;6.45;2.00;;;27.00;1.00;;;;;;6027568;23;20033;-93
2023/05/31 10:12:29;;;;;;;11.82;2.40;;;27.40;1.00;;;;;;6168438;23;20053;-89
2023/05/31 10:15:39;;;;;;;;;;;27.90;1.00;;;;;;6167402;23;20083;-93
2023/05/31 10:18:32;;;;;;;7.88;1.85;;;28.50;1.00;;;;;;6168017;23;19943;-90
2023/05/31 10:21:38;;;;;;;5.68;2.45;;;28.20;1.00;;;;;;6169586;23;20076;-93
2023/05/31 10:25:23;;;;;;;6.80;2.17;;;28.10;1.00;;;;;;6170308;23;20025;-91
2023/05/31 10:29:03;;;;;;;10.93;2.20;;;28.10;1.00;;;;;;6136294;23;20028;-90
2023/05/31 10:32:32;;;;;;;7.38;2.08;;;28.40;1.00;;;;;;6071351;23;20105;-93
2023/05/31 10:35:25;;;;;;;6.20;2.17;;;28.20;1.00;;;;;;6015485;23;20028;-94
2023/05/31 10:39:04;;;;;;;4.95;2.35;;;27.90;1.00;;;;;;5931556;24;20033;-86
2023/05/31 10:42:41;;;;;;;4.97;1.70;;;28.40;1.00;;;;;;6036444;23;20037;-89
2023/05/31 10:45:53;;;;;;;;;;;;;;;;;;;;;
2023/05/31 10:49:10;;;;;;;10.37;2.63;;;27.80;1.00;;;;;;6070641;23;20457;-88
2023/05/31 10:52:10;;;;;;;4.15;2.00;;;27.90;1.00;;;;;;6065824;23;20035;-90
2023/05/31 10:59:44;;;;;;;;;;;27.70;1.00;;;;;;6013364;23;20526;-87
2023/05/31 11:02:59;;;;;;;6.35;2.30;;;28.10;1.00;;;;;;5995299;23;19922;-92
2023/05/31 11:06:32;;;;;;;9.50;2.20;;;27.70;1.00;;;;;;6014016;23;20046;-92
2023/05/31 11:10:42;;;;;;;;;;;;;;;;;;;;;
2023/05/31 11:14:29;;;;;;;7.55;2.50;;;28.50;1.00;;;;;;6043963;23;20022;-91
2023/05/31 11:21:56;;;;;;;7.85;2.38;;;29.70;1.00;;;;;;6046422;23;20027;-90
2023/05/31 11:24:59;;;;;;;4.07;2.28;;;30.00;1.00;;;;;;6079666;23;20098;-93
2023/05/31 11:28:05;;;;;;;6.78;2.63;;;29.20;1.00;;;;;;6156143;23;20059;-91
2023/05/31 11:30:55;;;;;;;6.00;1.95;;;29.80;1.00;;;;;;6168747;23;20029;-95
2023/05/31 11:38:57;;;;;;;7.60;2.30;;;28.90;1.00;;;;;;6072178;23;20034;-93
2023/05/31 11:45:36;;;;;;;6.05;2.45;;;30.60;1.00;;;;;;6077273;23;20035;-91
2023/05/31 11:49:07;;;;;;;4.47;2.10;;;30.50;1.00;;;;;;6050692;23;20322;-92
2023/05/31 11:52:51;;;;;;;;;;;;;;;;;;;;;
2023/05/31 11:56:21;;;;;;;6.40;1.80;;;29.60;1.00;;;;;;6045920;23;20027;-92
2023/05/31 11:59:48;;;;;;;6.25;2.13;;;30.30;1.00;;;;;;6043142;23;20462;-92
2023/05/31 12:03:16;;;;;;;3.60;2.00;;;30.50;1.00;;;;;;6011787;23;20031;-91
2023/05/31 12:06:15;;;;;;;6.20;2.22;;;30.70;1.00;;;;;;6043635;23;20035;-93
2023/05/31 12:10:34;;;;;;;;;;;;;;;;;;;;;
2023/05/31 12:14:07;;;;;;;12.40;2.88;;;30.60;1.00;;;;;;6191723;23;20028;-91
2023/05/31 12:18:05;;;;;;;4.03;2.33;;;31.80;1.00;;;;;;6166833;23;20088;-93
2023/05/31 12:20:52;;;;;;;4.80;1.95;;;30.30;1.00;;;;;;6191153;23;20021;-94
2023/05/31 12:24:15;;;;;;;7.65;2.40;;;29.80;1.00;;;;;;6166896;23;20036;-91
2023/05/31 12:27:29;;;;;;;5.72;2.00;;;29.30;1.00;;;;;;6170408;23;20432;-93
2023/05/31 12:30:33;;;;;;;8.02;2.10;;;29.30;1.00;;;;;;6169787;23;20025;-88
2023/05/31 12:34:10;;;;;;;3.35;1.88;;;29.40;1.00;;;;;;6169705;23;20052;-93
2023/05/31 12:37:16;;;;;;;10.10;2.28;;;30.30;1.00;;;;;;6188146;23;20021;-91
2023/05/31 12:40:41;;;;;;;6.65;2.47;;;30.00;1.00;;;;;;6188318;23;20021;-91
2023/05/31 12:43:48;;;;;;;4.30;2.33;;;29.20;1.00;;;;;;6168318;23;20114;-92
2023/05/31 12:46:50;;;;;;;4.25;1.70;;;29.50;1.00;;;;;;6189157;23;20443;-93
2023/05/31 12:50:34;;;;;;;7.50;2.35;;;29.50;1.00;;;;;;6191012;23;20032;-94
2023/05/31 12:54:01;;;;;;;7.43;2.30;;;30.20;1.00;;;;;;6175329;23;20069;-93
2023/05/31 12:57:29;;;;;;;6.72;2.25;;;30.50;1.00;;;;;;6118508;23;20036;-91
2023/05/31 13:00:58;;;;;;;6.05;2.03;;;29.90;1.00;;;;;;6194854;23;20040;-94
2023/05/31 13:03:46;;;;;;;8.60;2.10;;;30.20;1.00;;;;;;6186314;23;20032;-91
2023/05/31 13:06:53;;;;;;;7.32;1.88;;;30.30;1.00;;;;;;6197371;23;20025;-92
2023/05/31 13:09:51;;;;;;;8.27;2.05;;;30.80;1.00;;;;;;6192530;23;20088;-94
2023/05/31 13:12:46;;;;;;;5.13;2.00;;;30.70;1.00;;;;;;6171356;23;20035;-88
2023/05/31 13:15:45;;;;;;;5.63;2.30;;;30.80;1.00;;;;;;6194691;23;20051;-89
2023/05/31 13:18:54;;;;;;;4.90;1.92;;;30.40;1.00;;;;;;6188937;23;20405;-89
2023/05/31 13:22:33;;;;;;;;;;;;;;;;;;;;;
2023/05/31 13:24:51;;;;;;;5.03;2.20;;;31.00;1.00;;;;;;6181953;23;20423;-87
2023/05/31 13:27:43;;;;;;;7.05;2.05;;;30.30;1.00;;;;;;6187368;23;20088;-92
2023/05/31 13:30:36;;;;;;;4.13;2.00;;;29.80;1.00;;;;;;6186114;23;20432;-90
2023/05/31 13:33:29;;;;;;;8.38;2.20;;;30.00;1.00;;;;;;6164655;23;20025;-89
2023/05/31 13:36:27;;;;;;;6.38;2.22;;;29.70;1.00;;;;;;6165488;23;20029;-90
2023/05/31 13:39:15;;;;;;;5.05;1.73;;;29.60;1.00;;;;;;6165963;23;20021;-88
2023/05/31 13:42:19;;;;;;;3.33;2.08;;;30.50;1.00;;;;;;6159717;23;20025;-92
2023/05/31 13:45:15;;;;;;;7.45;2.03;;;30.20;1.00;;;;;;6163437;23;20602;-93
2023/05/31 13:48:03;;;;;;;7.30;1.98;;;29.60;1.00;;;;;;6185881;23;20025;-90
2023/05/31 13:51:15;;;;;;;5.18;2.10;;;29.40;1.00;;;;;;6187860;23;20028;-93
2023/05/31 13:54:06;;;;;;;6.18;2.00;;;29.20;1.00;;;;;;6186057;23;20025;-91
2023/05/31 13:56:58;;;;;;;5.15;1.65;;;29.80;1.00;;;;;;6187201;23;20032;-93
2023/05/31 14:00:13;;;;;;;;;;;;;;;;;;;;;
2023/05/31 14:03:21;;;;;;;7.25;2.10;;;30.70;1.00;;;;;;6196276;23;20025;-89
2023/05/31 14:06:43;;;;;;;5.65;2.03;;;30.30;1.00;;;;;;6179292;23;20079;-91
2023/05/31 14:10:40;;;;;;;5.85;1.83;;;29.40;1.00;;;;;;6175347;23;20417;-93
2023/05/31 14:13:51;;;;;;;3.72;1.80;;;30.20;1.00;;;;;;6080464;23;20331;-92
2023/05/31 14:16:50;;;;;;;3.63;1.42;;;30.50;1.00;;;;;;6149065;23;20340;-92
2023/05/31 14:20:00;;;;;;;3.13;2.00;;;30.00;1.00;;;;;;6189743;23;20029;-91
2023/05/31 14:23:14;;;;;;;8.23;1.83;;;30.40;1.00;;;;;;6166618;23;20393;-92
2023/05/31 14:26:33;;;;;;;3.58;1.75;;;29.80;1.00;;;;;;6184718;23;20308;-92
2023/05/31 14:29:42;;;;;;;4.93;1.98;;;29.90;1.00;;;;;;6169347;23;20028;-90
2023/05/31 14:32:41;;;;;;;4.78;1.80;;;30.10;1.00;;;;;;6185981;23;20027;-91
2023/05/31 14:35:41;;;;;;;6.35;2.03;;;30.30;1.00;;;;;;6186374;23;20089;-90
2023/05/31 14:38:49;;;;;;;7.20;1.98;;;30.30;1.00;;;;;;6185619;23;20073;-92
2023/05/31 14:41:40;;;;;;;4.80;1.70;;;30.50;1.00;;;;;;6183832;23;20021;-88
2023/05/31 14:48:28;;;;;;;;;;;;;;;;;;;;;
2023/05/31 14:51:57;;;;;;;4.72;1.85;;;30.30;1.00;;;;;;6187265;23;20025;-92
2023/05/31 14:54:54;;;;;;;3.83;1.70;;;30.20;1.00;;;;;;6184877;23;20020;-90
2023/05/31 15:01:46;;;;;;;4.75;1.65;;;30.10;1.00;;;;;;6036822;23;20461;-93
2023/05/31 15:05:36;;;;;;;;;;;;;;;;;;;;;
2023/05/31 15:08:46;;;;;;;6.70;1.90;;;29.50;1.00;;;;;;6068403;23;20037;-91
2023/05/31 15:11:43;;;;;;;7.00;1.95;;;28.80;1.00;;;;;;6049388;23;20074;-91
2023/05/31 15:14:42;;;;;;;6.88;2.00;;;28.70;1.00;;;;;;6048106;23;20023;-92
2023/05/31 15:17:48;;;;;;;;;;;;;;;;;;;;;
2023/05/31 15:20:45;;;;;;;4.22;1.95;;;29.20;1.00;;;;;;6068616;23;20019;-90
2023/05/31 15:24:02;;;;;;;4.25;1.90;;;29.00;1.00;;;;;;6067498;23;20030;-93
2023/05/31 15:27:03;;;;;;;3.70;1.58;;;28.80;1.00;;;;;;6069530;23;20035;-91
2023/05/31 15:30:11;;;;;;;8.02;2.00;;;28.50;1.00;;;;;;6050680;23;20082;-92
2023/05/31 15:33:28;;;;;;;7.40;1.90;;;28.70;1.00;;;;;;6070747;23;20629;-91
2023/05/31 15:36:29;;;;;;;7.53;2.03;;;29.20;1.00;;;;;;6050376;23;20269;-90
2023/05/31 15:39:36;;;;;;;4.13;1.50;;;29.00;1.00;;;;;;6188716;23;20076;-94
2023/05/31 15:42:25;;;;;;;3.33;1.67;;;28.70;1.00;;;;;;6186916;23;20032;-92
2023/05/31 15:45:43;;;;;;;5.13;2.13;;;28.40;1.00;;;;;;6186108;23;20104;-93
2023/05/31 15:48:58;;;;;;;8.82;2.53;;;27.60;1.00;;;;;;6185588;23;20312;-90
2023/05/31 15:52:08;;;;;;;7.53;2.25;;;28.00;1.00;;;;;;6041793;23;20034;-93
2023/05/31 15:55:35;;;;;;;12.57;2.17;;;28.40;1.00;;;;;;6041833;23;20055;-92
2023/05/31 16:02:38;;;;;;;8.65;2.70;;;27.30;1.00;;;;;;5933899;24;20103;-92
2023/05/31 16:05:57;;;;;;;12.45;2.63;;;26.60;1.00;;;;;;6046998;23;20091;-91
2023/05/31 16:09:01;;;;;;;7.65;2.15;;;26.30;1.00;;;;;;6043727;23;20028;-92
2023/05/31 16:11:49;;;;;;;8.70;2.17;;;26.30;1.00;;;;;;6042460;23;20027;-91
2023/05/31 16:14:38;;;;;;;4.28;2.35;;;26.10;1.00;;;;;;6043703;23;20041;-91
2023/05/31 16:17:25;;;;;;;9.73;2.63;;;26.10;1.00;;;;;;6043556;23;20023;-91
2023/05/31 16:20:17;;;;;;;7.05;2.33;;;25.40;1.00;;;;;;6040863;23;20102;-92
2023/05/31 16:23:04;;;;;;;5.30;2.25;;;25.00;1.00;;;;;;6042124;23;20475;-89
2023/05/31 16:25:56;;;;;;;4.85;2.25;;;25.00;1.00;;;;;;6041135;23;20038;-91
2023/05/31 16:28:44;;;;;;;3.00;2.08;;;25.20;1.00;;;;;;6160946;23;20032;-90
2023/05/31 16:31:31;;;;;;;5.40;2.25;;;25.10;1.00;;;;;;6189331;23;20025;-90
2023/05/31 16:34:19;;;;;;;5.60;2.58;;;25.00;1.00;;;;;;6192209;23;20032;-89
2023/05/31 16:37:14;;;;;;;4.80;2.15;;;24.60;1.00;;;;;;6191547;23;20021;-92
2023/05/31 16:40:02;;;;;;;4.13;1.70;;;24.30;1.00;;;;;;6192569;23;20021;-91
2023/05/31 16:42:52;;;;;;;5.13;2.17;;;24.00;1.00;;;;;;6193370;23;20343;-87
2023/05/31 16:45:42;;;;;;;8.10;2.25;;;23.70;1.00;;;;;;6195121;23;20044;-91
2023/05/31 16:48:36;;;;;;;4.65;2.10;;;23.40;1.00;;;;;;6194078;23;20036;-92
2023/05/31 16:56:00;;;;;;;;;;;;;;;;;;;;;
2023/05/31 16:59:17;;;;;;;6.00;2.15;;;22.90;1.00;;;;;;6093455;23;20030;-90